Time;durP1;ratioP1;P1;durP2;ratioP2;P2;SDS_P1;SDS_P2;PMS_P1;PMS_P2;Temp;Humidity;BMP_temperature;BMP_pressure;BME280_temperature;BME280_humidity;BME280_pressure;Samples;Min_cycle;Max_cycle;Signal;HPM_P1;HPM_P2
2022/07/28 00:02:25;;;;;;;7.55;1.00;;;;;;;15.87;55.85;101688.97;5063594;28;20115;-73
2022/07/28 00:04:50;;;;;;;6.55;0.93;;;;;;;15.86;47.45;101691.75;5064554;28;20082;-74
2022/07/28 00:07:16;;;;;;;3.63;0.80;;;;;;;15.83;56.25;101685.06;5047545;28;20469;-74
2022/07/28 00:09:41;;;;;;;8.23;0.90;;;;;;;15.82;56.39;101685.22;5045220;28;20067;-73
2022/07/28 00:12:07;;;;;;;6.03;1.08;;;;;;;15.83;56.45;101679.03;5059292;28;20036;-75
2022/07/28 00:14:33;;;;;;;6.88;1.25;;;;;;;15.79;56.32;101675.13;5063938;28;20089;-73
2022/07/28 00:16:58;;;;;;;5.40;1.17;;;;;;;15.76;56.55;101674.47;5058242;28;20108;-74
2022/07/28 00:19:25;;;;;;;3.85;0.70;;;;;;;15.80;56.46;101682.78;5042530;28;20115;-75
2022/07/28 00:21:51;;;;;;;4.20;0.85;;;;;;;15.74;56.54;101679.03;5045689;28;20040;-74
2022/07/28 00:24:16;;;;;;;3.35;1.23;;;;;;;15.71;57.06;101681.97;5062237;28;20044;-74
2022/07/28 00:26:42;;;;;;;2.40;0.88;;;;;;;15.73;57.08;101673.97;5062037;28;20089;-75
2022/07/28 00:29:07;;;;;;;2.88;0.77;;;;;;;15.72;57.06;101662.69;5024760;28;20980;-74
2022/07/28 00:31:33;;;;;;;3.15;1.35;;;;;;;15.71;56.64;101674.13;5028254;28;20029;-74
2022/07/28 00:33:58;;;;;;;1.80;0.65;;;;;;;15.67;56.95;101667.63;5045144;28;20082;-75
2022/07/28 00:36:24;;;;;;;8.32;0.90;;;;;;;15.68;57.53;101661.38;5041862;28;20032;-72
2022/07/28 00:38:49;;;;;;;4.20;1.02;;;;;;;15.60;57.62;101655.38;5044336;28;20028;-75
2022/07/28 00:41:18;;;;;;;2.05;1.13;;;;;;;15.52;58.02;101662.25;5037234;28;20524;-74
2022/07/28 00:43:47;;;;;;;6.38;1.35;;;;;;;15.59;58.09;101657.16;5046128;28;20028;-74
2022/07/28 00:46:14;;;;;;;2.38;0.90;;;;;;;15.52;57.99;101664.88;5062463;28;20037;-72
2022/07/28 00:48:42;;;;;;;3.67;0.77;;;;;;;15.48;58.17;101665.38;5063580;28;20078;-74
2022/07/28 00:51:09;;;;;;;4.05;1.00;;;;;;;15.45;58.30;101652.66;5062493;28;20587;-75
2022/07/28 00:53:37;;;;;;;2.70;0.98;;;;;;;15.44;58.29;101654.44;5067918;28;20108;-74
2022/07/28 00:56:04;;;;;;;2.08;0.80;;;;;;;15.41;58.61;101656.56;5042226;28;20108;-75
2022/07/28 00:58:30;;;;;;;3.38;0.65;;;;;;;15.42;58.45;101652.97;5043094;28;20040;-74
2022/07/28 01:00:56;;;;;;;3.83;0.90;;;;;;;15.33;58.77;101650.38;5043990;28;20040;-74
2022/07/28 01:03:22;;;;;;;4.72;1.00;;;;;;;15.29;58.66;101645.66;5029582;28;20071;-75
2022/07/28 01:06:01;;;;;;;5.03;0.90;;;;;;;15.22;58.99;101653.34;5062859;28;20036;-74
2022/07/28 01:08:48;;;;;;;5.45;0.93;;;;;;;15.22;59.07;101657.75;5041820;28;20036;-73
2022/07/28 01:11:37;;;;;;;4.22;0.93;;;;;;;15.16;59.19;101654.81;5043593;28;20041;-73
2022/07/28 01:14:09;;;;;;;5.22;0.63;;;;;;;15.16;59.23;101659.22;5060531;28;20504;-74
2022/07/28 01:16:52;;;;;;;3.38;0.70;;;;;;;15.13;59.37;101660.38;5043190;28;20133;-74
2022/07/28 01:19:34;;;;;;;2.17;0.82;;;;;;;15.12;59.76;101660.53;5044263;28;20082;-74
2022/07/28 01:22:02;;;;;;;5.75;1.50;;;;;;;15.10;59.74;101655.47;5063328;28;20129;-74
2022/07/28 01:24:46;;;;;;;6.30;1.00;;;;;;;15.11;59.51;101651.06;5043525;28;21509;-74
2022/07/28 01:27:32;;;;;;;1.77;1.02;;;;;;;15.02;59.87;101652.88;5043944;28;20125;-74
2022/07/28 01:30:40;;;;;;;4.55;0.70;;;;;;;15.12;59.74;101658.72;5044530;28;20067;-75
2022/07/28 01:33:15;;;;;;;3.38;0.80;;;;;;;15.05;59.69;101657.78;5060133;28;20032;-73
2022/07/28 01:35:53;;;;;;;4.82;1.38;;;;;;;15.06;59.95;101648.13;5060731;28;20485;-74
2022/07/28 01:38:21;;;;;;;2.30;0.70;;;;;;;14.95;60.18;101647.47;5030198;28;20039;-74
2022/07/28 01:40:50;;;;;;;3.78;1.05;;;;;;;14.92;60.50;101647.00;5040421;28;20090;-73
2022/07/28 01:43:19;;;;;;;1.95;0.73;;;;;;;15.01;60.46;101653.03;5061079;28;20108;-74
2022/07/28 01:45:45;;;;;;;3.70;0.90;;;;;;;14.93;60.81;101652.06;5054404;28;20039;-73
2022/07/28 01:48:15;;;;;;;1.90;0.80;;;;;;;14.91;60.26;101648.78;5063325;28;21146;-74
2022/07/28 01:50:42;;;;;;;5.50;0.70;;;;;;;14.92;60.47;101647.81;5048486;28;20072;-74
2022/07/28 01:53:13;;;;;;;7.47;1.15;;;;;;;14.84;60.57;101645.19;5043080;28;20178;-74
2022/07/28 01:55:42;;;;;;;4.03;1.30;;;;;;;14.82;60.88;101628.06;5044602;28;20028;-74
2022/07/28 01:58:10;;;;;;;6.28;1.23;;;;;;;14.77;60.82;101633.81;5039843;28;20107;-74
2022/07/28 02:00:37;;;;;;;4.85;0.85;;;;;;;14.75;60.99;101625.31;5027904;28;20028;-74
2022/07/28 02:03:05;;;;;;;1.75;0.95;;;;;;;14.71;61.39;101624.81;5041787;28;20055;-74
2022/07/28 02:05:33;;;;;;;3.80;0.90;;;;;;;14.73;61.26;101630.69;5043739;28;20090;-74
2022/07/28 02:08:01;;;;;;;5.25;1.10;;;;;;;14.73;61.44;101625.47;5060716;28;20033;-74
2022/07/28 02:10:28;;;;;;;4.20;0.77;;;;;;;14.75;61.15;101625.31;5044012;28;20029;-74
2022/07/28 02:12:56;;;;;;;4.05;0.80;;;;;;;14.75;61.28;101622.72;5057629;28;20116;-73
2022/07/28 02:15:23;;;;;;;3.95;1.58;;;;;;;14.62;61.83;101628.41;5059697;28;20040;-74
2022/07/28 02:17:51;;;;;;;4.65;1.08;;;;;;;14.63;62.27;101624.00;5042973;28;20075;-74
2022/07/28 02:20:17;;;;;;;8.25;0.98;;;;;;;14.58;61.89;101620.09;5042778;28;20051;-74
2022/07/28 02:22:44;;;;;;;1.33;0.70;;;;;;;14.56;62.26;101624.63;5060771;28;20536;-74
2022/07/28 02:25:11;;;;;;;4.47;0.98;;;;;;;14.50;62.37;101616.59;5059110;28;20040;-73
2022/07/28 02:27:41;;;;;;;3.45;0.80;;;;;;;14.50;62.26;101612.19;5044676;28;20489;-74
2022/07/28 02:30:18;;;;;;;3.78;0.90;;;;;;;14.51;62.39;101610.44;5061767;28;20090;-74
2022/07/28 02:32:55;;;;;;;3.25;0.82;;;;;;;14.52;62.30;101609.44;5030965;28;20055;-74
2022/07/28 02:35:43;;;;;;;6.15;1.83;;;;;;;14.50;62.62;101614.00;5061949;28;20034;-74
2022/07/28 02:38:18;;;;;;;4.13;0.85;;;;;;;14.51;62.34;101602.59;5061285;28;20450;-74
2022/07/28 02:40:47;;;;;;;1.98;0.75;;;;;;;14.53;62.38;101592.81;5042767;28;20056;-74
2022/07/28 02:43:15;;;;;;;3.42;0.80;;;;;;;14.48;62.62;101593.28;5022427;28;22116;-72
2022/07/28 02:45:43;;;;;;;5.72;1.23;;;;;;;14.34;63.09;101586.13;5058201;28;20047;-74
2022/07/28 02:48:12;;;;;;;4.72;0.90;;;;;;;14.34;63.38;101588.72;5041633;28;20159;-74
2022/07/28 02:50:39;;;;;;;5.75;0.98;;;;;;;14.33;63.29;101590.50;5061624;28;20036;-74
2022/07/28 02:53:06;;;;;;;2.65;0.90;;;;;;;14.36;63.11;101595.41;5057940;28;20101;-74
2022/07/28 02:55:32;;;;;;;3.88;0.95;;;;;;;14.28;63.49;101594.56;5043132;28;20067;-74
2022/07/28 02:57:59;;;;;;;4.32;0.75;;;;;;;14.29;63.49;101591.81;5041215;28;20056;-73
2022/07/28 03:00:26;;;;;;;2.90;1.15;;;;;;;14.28;63.39;101586.72;5047984;28;20028;-74
2022/07/28 03:02:54;;;;;;;6.18;1.30;;;;;;;14.24;63.64;101593.25;5032517;28;20075;-74
2022/07/28 03:05:20;;;;;;;4.55;1.33;;;;;;;14.27;63.61;101593.75;5058875;28;20048;-74
2022/07/28 03:07:51;;;;;;;2.63;1.05;;;;;;;14.19;63.73;101586.72;5044724;28;20706;-74
2022/07/28 03:10:25;;;;;;;2.95;1.30;;;;;;;14.16;63.87;101591.44;5043080;28;20040;-74
2022/07/28 03:12:52;;;;;;;5.13;1.13;;;;;;;14.18;63.93;101590.34;5056548;28;20037;-74
2022/07/28 03:15:18;;;;;;;4.88;1.50;;;;;;;14.15;64.03;101590.66;5037849;28;20081;-74
2022/07/28 03:17:43;;;;;;;3.72;1.08;;;;;;;14.16;64.07;101597.47;5040217;28;20040;-74
2022/07/28 03:20:10;;;;;;;7.00;1.55;;;;;;;14.15;64.09;101590.66;5040438;28;20021;-73
2022/07/28 03:22:36;;;;;;;3.65;0.85;;;;;;;14.11;64.20;101593.72;5042480;28;20028;-74
2022/07/28 03:25:07;;;;;;;3.78;1.00;;;;;;;14.01;64.87;101593.88;5044158;28;20047;-74
2022/07/28 03:27:40;;;;;;;4.32;0.80;;;;;;;13.97;65.09;101605.59;5038777;28;20094;-74
2022/07/28 03:30:14;;;;;;;2.42;0.90;;;;;;;13.99;65.05;101598.41;5060173;28;20029;-74
2022/07/28 03:32:43;;;;;;;2.90;0.80;;;;;;;14.02;64.90;101606.75;5063966;28;20036;-73
2022/07/28 03:35:09;;;;;;;7.88;0.90;;;;;;;14.01;64.89;101606.91;5062745;28;20036;-74
2022/07/28 03:37:54;;;;;;;4.70;1.02;;;;;;;13.97;65.15;101605.59;5027976;28;20392;-74
2022/07/28 03:40:24;;;;;;;3.92;0.80;;;;;;;13.95;65.55;101610.97;5064300;28;20108;-74
2022/07/28 03:42:51;;;;;;;3.85;1.02;;;;;;;13.96;64.98;101614.41;5061272;28;20036;-74
2022/07/28 03:45:16;;;;;;;3.53;1.20;;;;;;;13.96;65.26;101614.41;5044672;28;20909;-74
2022/07/28 03:47:58;;;;;;;1.63;0.80;;;;;;;13.94;65.50;101613.75;5047125;28;20044;-74
2022/07/28 03:50:26;;;;;;;5.15;1.00;;;;;;;13.86;65.68;101614.50;5046632;28;20040;-74
2022/07/28 03:52:53;;;;;;;2.25;1.00;;;;;;;13.80;65.91;101617.75;5046799;28;20071;-74
2022/07/28 03:55:19;;;;;;;2.60;0.90;;;;;;;13.80;66.05;101615.94;5062380;28;20029;-73
2022/07/28 03:57:45;;;;;;;3.28;0.90;;;;;;;13.77;66.19;101611.06;5064086;28;20033;-74
2022/07/28 04:00:11;;;;;;;4.57;0.80;;;;;;;13.74;66.29;101619.19;5065577;28;20036;-74
2022/07/28 04:02:43;;;;;;;3.22;1.00;;;;;;;13.62;66.75;101620.47;5064131;28;20040;-73
2022/07/28 04:05:13;;;;;;;3.78;1.50;;;;;;;13.62;66.97;101612.66;5047718;28;20416;-74
2022/07/28 04:07:40;;;;;;;4.35;1.23;;;;;;;13.61;67.19;101617.00;5062951;28;20526;-74
2022/07/28 04:10:08;;;;;;;12.52;2.80;;;;;;;13.60;67.19;101614.59;5045272;28;20035;-74
2022/07/28 04:12:48;;;;;;;3.05;1.13;;;;;;;13.60;67.18;101610.19;5047848;28;20039;-74
2022/07/28 04:15:14;;;;;;;7.18;1.10;;;;;;;13.62;67.10;101608.25;5045703;28;20504;-74
2022/07/28 04:17:40;;;;;;;3.95;0.90;;;;;;;13.62;67.30;101608.25;5044545;28;20028;-74
2022/07/28 04:20:07;;;;;;;10.20;1.20;;;;;;;13.61;67.45;101600.56;5066064;28;20032;-74
2022/07/28 04:22:32;;;;;;;3.72;1.15;;;;;;;13.57;67.52;101604.47;5063752;28;20392;-73
2022/07/28 04:24:58;;;;;;;3.20;1.00;;;;;;;13.56;67.66;101608.03;5063670;28;20512;-73
2022/07/28 04:27:24;;;;;;;9.43;1.52;;;;;;;13.54;67.88;101597.78;5044387;28;20111;-74
2022/07/28 04:29:49;;;;;;;9.70;1.02;;;;;;;13.60;67.96;101598.97;5059754;28;20044;-74
2022/07/28 04:32:15;;;;;;;4.15;1.20;;;;;;;13.55;68.21;101606.41;5045463;28;20047;-73
2022/07/28 04:34:40;;;;;;;2.45;1.35;;;;;;;13.49;68.36;101604.44;5030609;28;20497;-74
2022/07/28 04:37:07;;;;;;;7.13;1.48;;;;;;;13.50;68.49;101599.06;5064537;28;20582;-74
2022/07/28 04:39:34;;;;;;;4.82;1.45;;;;;;;13.42;68.83;101607.66;5062898;28;20148;-74
2022/07/28 04:42:00;;;;;;;2.92;1.13;;;;;;;13.44;69.05;101602.28;5041015;28;20449;-74
2022/07/28 04:44:25;;;;;;;7.38;1.50;;;;;;;13.48;68.97;101595.78;5046716;28;20455;-74
2022/07/28 04:46:51;;;;;;;10.27;1.00;;;;;;;13.43;69.35;101598.06;5046388;28;20085;-74
2022/07/28 04:49:16;;;;;;;4.63;1.20;;;;;;;13.47;69.43;101598.53;5046065;28;20375;-73
2022/07/28 04:51:47;;;;;;;4.88;1.00;;;;;;;13.57;69.37;101604.47;5064964;28;20032;-74
2022/07/28 04:54:12;;;;;;;7.85;1.20;;;;;;;13.67;69.42;101601.75;5045170;28;20070;-74
2022/07/28 04:56:38;;;;;;;5.90;1.92;;;;;;;13.66;69.29;101594.91;5046231;28;20043;-74
2022/07/28 04:59:03;;;;;;;5.68;1.27;;;;;;;13.61;69.31;101596.16;5059100;28;20028;-74
2022/07/28 05:01:29;;;;;;;6.75;1.35;;;;;;;13.53;69.50;101605.75;5043836;28;20029;-74
2022/07/28 05:03:54;;;;;;;5.53;1.33;;;;;;;13.52;69.82;101601.50;5046772;28;20036;-74
2022/07/28 05:06:19;;;;;;;6.93;1.77;;;;;;;13.59;69.58;101607.72;5046063;28;20036;-75
2022/07/28 05:08:45;;;;;;;5.68;1.33;;;;;;;13.55;69.73;101602.00;5062648;28;20044;-75
2022/07/28 05:11:10;;;;;;;2.90;1.10;;;;;;;13.54;69.74;101605.63;5063595;28;20040;-74
2022/07/28 05:13:36;;;;;;;4.57;1.30;;;;;;;13.65;70.27;101607.09;5043791;28;20024;-72
2022/07/28 05:16:02;;;;;;;12.10;1.40;;;;;;;13.67;69.77;101599.94;5046073;28;20060;-74
2022/07/28 05:18:27;;;;;;;4.18;1.20;;;;;;;13.69;69.69;101608.41;5062443;28;20036;-74
2022/07/28 05:20:53;;;;;;;6.78;1.40;;;;;;;13.81;69.51;101608.97;5044628;28;20061;-75
2022/07/28 05:23:18;;;;;;;7.05;1.52;;;;;;;13.87;69.33;101608.34;5043958;28;20048;-73
2022/07/28 05:25:44;;;;;;;8.55;1.35;;;;;;;13.86;69.72;101608.47;5031438;28;20040;-74
2022/07/28 05:28:10;;;;;;;6.85;1.60;;;;;;;13.94;69.43;101613.75;5059013;28;20051;-75
2022/07/28 05:30:35;;;;;;;7.68;1.60;;;;;;;14.01;68.84;101605.13;5041111;28;20032;-74
2022/07/28 05:33:01;;;;;;;4.53;1.50;;;;;;;14.10;68.71;101613.78;5062204;28;20490;-73
2022/07/28 05:35:27;;;;;;;5.18;1.40;;;;;;;14.21;68.88;101610.06;5062168;28;20112;-74
2022/07/28 05:37:52;;;;;;;6.10;1.60;;;;;;;14.35;68.23;101608.59;5052142;28;20021;-75
2022/07/28 05:40:18;;;;;;;5.85;1.38;;;;;;;14.37;68.52;101606.66;5038982;28;20035;-73
2022/07/28 05:42:46;;;;;;;3.97;1.45;;;;;;;14.44;68.13;101602.41;5040502;28;20039;-74
2022/07/28 05:45:12;;;;;;;5.40;1.13;;;;;;;14.57;68.13;101602.78;5059640;28;20044;-73
2022/07/28 05:47:46;;;;;;;8.23;1.20;;;;;;;14.67;67.38;101600.00;5031499;28;20029;-72
2022/07/28 05:50:16;;;;;;;4.90;1.25;;;;;;;14.84;66.99;101606.03;5039295;28;20041;-73
2022/07/28 05:52:43;;;;;;;7.78;1.35;;;;;;;14.95;66.11;101604.88;5059591;28;20025;-74
2022/07/28 05:55:09;;;;;;;5.95;1.50;;;;;;;15.10;65.92;101602.41;5041927;28;20024;-74
2022/07/28 05:57:35;;;;;;;5.45;1.13;;;;;;;15.47;65.49;101601.03;5062258;28;20119;-74
2022/07/28 06:00:02;;;;;;;7.55;1.25;;;;;;;15.54;64.14;101599.38;5059670;28;20111;-74
2022/07/28 06:02:37;;;;;;;8.57;1.40;;;;;;;15.47;64.36;101599.22;5057689;28;21090;-71
2022/07/28 06:05:05;;;;;;;7.40;1.73;;;;;;;15.61;64.39;101600.31;5040104;28;20046;-71
2022/07/28 06:07:31;;;;;;;7.85;1.50;;;;;;;15.73;63.85;101598.16;5043792;28;20040;-72
2022/07/28 06:09:57;;;;;;;6.57;1.88;;;;;;;15.70;63.29;101599.28;5057660;28;20044;-71
2022/07/28 06:12:22;;;;;;;3.97;1.10;;;;;;;15.90;63.30;101596.31;5043520;28;20093;-72
2022/07/28 06:14:48;;;;;;;5.72;1.27;;;;;;;16.44;62.21;101592.81;5055035;28;20183;-73
2022/07/28 06:17:14;;;;;;;4.80;1.15;;;;;;;16.62;61.34;101598.59;5055607;28;20505;-72
2022/07/28 06:19:41;;;;;;;9.35;1.73;;;;;;;16.41;61.24;101595.81;5040586;28;20089;-73
2022/07/28 06:22:07;;;;;;;7.93;2.35;;;;;;;16.40;61.34;101605.44;5040122;28;20032;-73
2022/07/28 06:24:32;;;;;;;5.70;1.13;;;;;;;16.10;61.73;101601.88;5059627;28;20987;-71
2022/07/28 06:27:00;;;;;;;5.70;1.67;;;;;;;15.96;62.23;101598.22;5043305;28;20496;-75
2022/07/28 06:29:25;;;;;;;10.77;1.38;;;;;;;15.99;62.92;101604.91;5045868;28;21292;-75
2022/07/28 06:31:51;;;;;;;8.43;1.50;;;;;;;15.99;62.48;101595.25;5045461;28;20131;-74
2022/07/28 06:34:16;;;;;;;6.03;1.60;;;;;;;16.00;62.81;101596.88;5040188;28;20037;-72
2022/07/28 06:36:41;;;;;;;7.65;2.30;;;;;;;16.23;62.06;101590.84;5042886;28;20044;-75
2022/07/28 06:39:07;;;;;;;9.30;2.03;;;;;;;16.33;62.18;101591.44;5043776;28;20028;-73
2022/07/28 06:41:32;;;;;;;8.35;2.10;;;;;;;16.34;61.74;101599.09;5062003;28;20028;-74
2022/07/28 06:43:58;;;;;;;6.72;1.63;;;;;;;16.28;61.46;101599.00;5043662;28;20063;-76
2022/07/28 06:46:23;;;;;;;6.75;1.70;;;;;;;16.43;61.77;101594.63;5046294;28;20032;-75
2022/07/28 06:48:49;;;;;;;15.55;2.53;;;;;;;16.59;61.16;101592.88;5059530;28;20392;-74
2022/07/28 06:51:17;;;;;;;13.77;2.55;;;;;;;16.75;60.23;101590.13;5047047;28;20040;-74
2022/07/28 06:53:47;;;;;;;5.05;1.45;;;;;;;17.20;59.42;101598.09;5060916;28;20483;-74
2022/07/28 06:56:12;;;;;;;18.27;2.47;;;;;;;17.38;58.35;101592.47;5037837;28;20079;-74
2022/07/28 06:58:38;;;;;;;5.60;1.77;;;;;;;17.49;57.17;101586.75;5043860;28;20067;-75
2022/07/28 07:01:06;;;;;;;12.63;2.70;;;;;;;17.23;58.01;101587.22;5056453;28;20572;-75
2022/07/28 07:03:32;;;;;;;4.07;1.58;;;;;;;17.48;57.96;101585.16;5042852;28;20128;-73
2022/07/28 07:05:58;;;;;;;7.88;1.75;;;;;;;17.34;57.59;101589.38;5042498;28;20021;-75
2022/07/28 07:08:23;;;;;;;7.32;1.83;;;;;;;17.52;57.30;101576.72;5050767;28;20436;-74
2022/07/28 07:10:49;;;;;;;8.60;2.22;;;;;;;17.55;57.14;101578.16;5041632;28;20036;-73
2022/07/28 07:13:14;;;;;;;7.90;1.52;;;;;;;17.65;56.68;101567.38;5049753;28;22735;-74
2022/07/28 07:15:40;;;;;;;9.18;1.92;;;;;;;17.52;57.15;101574.09;5035952;28;20043;-72
2022/07/28 07:18:05;;;;;;;7.18;1.58;;;;;;;17.68;57.07;101570.44;5046608;28;20047;-75
2022/07/28 07:20:31;;;;;;;7.13;1.83;;;;;;;18.25;55.97;101566.22;5047524;28;20036;-73
2022/07/28 07:22:56;;;;;;;9.25;2.95;;;;;;;19.06;53.75;101571.09;5048203;28;20024;-75
2022/07/28 07:25:22;;;;;;;8.77;1.48;;;;;;;19.97;51.87;101567.41;5047296;28;20039;-73
2022/07/28 07:27:47;;;;;;;6.05;1.58;;;;;;;20.46;50.44;101556.75;5066210;28;20481;-74
2022/07/28 07:30:14;;;;;;;3.90;1.27;;;;;;;20.71;49.55;101559.56;5046229;28;20815;-74
2022/07/28 07:32:40;;;;;;;8.50;1.88;;;;;;;20.69;47.79;101569.50;5048518;28;20495;-74
2022/07/28 07:35:06;;;;;;;7.03;1.40;;;;;;;20.97;48.46;101569.25;5047444;28;20033;-71
2022/07/28 07:37:31;;;;;;;7.72;1.40;;;;;;;21.31;47.65;101564.69;5064097;28;20516;-73
2022/07/28 07:39:58;;;;;;;8.93;1.88;;;;;;;21.51;46.67;101560.19;5045044;28;20043;-72
2022/07/28 07:42:24;;;;;;;9.15;1.77;;;;;;;21.94;45.65;101569.25;5044963;28;20056;-75
2022/07/28 07:44:50;;;;;;;6.47;1.60;;;;;;;21.97;45.63;101566.22;5043877;28;20182;-73
2022/07/28 07:47:15;;;;;;;6.05;1.95;;;;;;;21.56;45.81;101562.97;5065689;28;20106;-74
2022/07/28 07:49:41;;;;;;;6.82;1.50;;;;;;;21.17;46.62;101566.56;5043196;28;20060;-74
2022/07/28 07:52:06;;;;;;;11.40;1.90;;;;;;;20.56;47.80;101563.19;5059875;28;20041;-74
2022/07/28 07:54:31;;;;;;;4.20;1.48;;;;;;;20.69;47.89;101557.13;5045711;28;20032;-75
2022/07/28 07:56:57;;;;;;;10.50;1.38;;;;;;;21.35;47.15;101547.44;5045797;28;20526;-75
2022/07/28 07:59:22;;;;;;;12.77;2.75;;;;;;;21.85;46.55;101552.06;5041506;28;20392;-74
2022/07/28 08:01:53;;;;;;;8.65;2.45;;;;;;;21.82;46.04;101552.50;5045961;28;20036;-75
2022/07/28 08:04:22;;;;;;;6.50;1.52;;;;;;;21.96;46.43;101551.38;5048913;28;20032;-73
2022/07/28 08:06:49;;;;;;;11.40;1.65;;;;;;;22.65;44.64;101546.19;5060800;28;20028;-74
2022/07/28 08:09:15;;;;;;;4.70;1.40;;;;;;;23.16;43.73;101541.59;5064339;28;20113;-74
2022/07/28 08:11:40;;;;;;;6.78;1.58;;;;;;;22.74;43.75;101545.69;5063345;28;21523;-74
2022/07/28 08:14:06;;;;;;;10.98;1.35;;;;;;;22.89;43.58;101541.88;5045422;28;20032;-74
2022/07/28 08:16:31;;;;;;;8.75;1.48;;;;;;;22.93;43.69;101540.41;5060426;28;20067;-74
2022/07/28 08:18:57;;;;;;;9.27;1.40;;;;;;;23.24;42.88;101538.63;5030278;28;20453;-73
2022/07/28 08:21:26;;;;;;;15.32;1.92;;;;;;;22.86;42.56;101540.47;5046742;28;20040;-75
2022/07/28 08:23:54;;;;;;;6.88;1.40;;;;;;;23.04;42.87;101539.69;5065654;28;20032;-75
2022/07/28 08:26:21;;;;;;;7.38;1.38;;;;;;;23.80;42.20;101526.91;5044478;28;20143;-75
2022/07/28 08:28:46;;;;;;;7.90;1.92;;;;;;;24.43;40.65;101519.38;5033094;28;20046;-74
2022/07/28 08:31:12;;;;;;;9.25;2.40;;;;;;;24.92;39.33;101519.09;5045728;28;20041;-74
2022/07/28 08:33:37;;;;;;;4.50;1.52;;;;;;;24.36;40.26;101518.69;5064373;28;20032;-74
2022/07/28 08:36:03;;;;;;;7.45;1.65;;;;;;;24.59;39.52;101524.00;5045340;28;20420;-75
2022/07/28 08:38:29;;;;;;;8.80;1.85;;;;;;;24.10;39.65;101521.56;5061709;28;20024;-76
2022/07/28 08:40:57;;;;;;;3.90;1.83;;;;;;;24.05;39.96;101512.69;5044374;28;20090;-75
2022/07/28 08:43:29;;;;;;;6.82;1.70;;;;;;;24.80;39.49;101511.19;5047153;28;20036;-75
2022/07/28 08:45:57;;;;;;;6.03;1.65;;;;;;;24.77;39.29;101506.34;5066700;28;20087;-74
2022/07/28 08:48:25;;;;;;;7.85;1.73;;;;;;;25.06;39.15;101505.34;5065396;28;20055;-73
2022/07/28 08:50:52;;;;;;;7.97;1.52;;;;;;;25.18;38.49;101504.50;5044456;28;20051;-75
2022/07/28 08:53:19;;;;;;;14.80;1.50;;;;;;;25.07;38.39;101503.47;5045635;28;20477;-76
2022/07/28 08:55:47;;;;;;;8.27;2.03;;;;;;;25.24;38.41;101500.91;5044827;28;20143;-75
2022/07/28 08:58:15;;;;;;;3.83;1.15;;;;;;;24.79;37.98;101497.13;5064553;28;20147;-74
2022/07/28 09:00:41;;;;;;;8.88;1.40;;;;;;;24.70;39.56;101503.81;5042932;28;20540;-75
2022/07/28 09:03:07;;;;;;;7.20;1.63;;;;;;;24.83;38.15;101506.22;5044433;28;20041;-77
2022/07/28 09:05:34;;;;;;;9.35;1.55;;;;;;;24.27;38.44;101507.63;5044010;28;20055;-75
2022/07/28 09:08:00;;;;;;;5.80;1.20;;;;;;;24.77;38.67;101519.59;5040249;28;20420;-75
2022/07/28 09:10:26;;;;;;;8.23;1.88;;;;;;;24.19;38.09;101518.56;5023986;28;20121;-75
2022/07/28 09:12:52;;;;;;;8.48;1.13;;;;;;;24.43;38.51;101509.59;5043248;28;20056;-75
2022/07/28 09:15:18;;;;;;;7.75;1.38;;;;;;;24.58;38.51;101511.81;5026750;28;20071;-74
2022/07/28 09:17:43;;;;;;;7.78;1.20;;;;;;;24.77;37.71;101508.97;5061198;28;20033;-76
2022/07/28 09:20:10;;;;;;;8.52;2.15;;;;;;;24.78;37.82;101514.06;5062326;28;20051;-74
2022/07/28 09:22:53;;;;;;;6.28;1.27;;;;;;;25.10;38.14;101510.19;5060248;28;20505;-76
2022/07/28 09:25:19;;;;;;;5.65;1.00;;;;;;;25.39;37.34;101509.19;5060696;28;20044;-76
2022/07/28 09:27:44;;;;;;;13.45;1.77;;;;;;;25.45;35.92;101496.81;5063230;28;20021;-77
2022/07/28 09:30:11;;;;;;;9.00;1.48;;;;;;;25.89;36.40;101506.81;5044750;28;20055;-75
2022/07/28 09:32:37;;;;;;;5.60;1.40;;;;;;;25.92;35.84;101501.84;5061020;28;20171;-74
2022/07/28 09:35:03;;;;;;;6.43;1.42;;;;;;;25.65;36.76;101504.28;5061141;28;20048;-73
2022/07/28 09:37:29;;;;;;;7.22;1.33;;;;;;;24.64;37.43;101496.81;5060535;28;20035;-75
2022/07/28 09:39:59;;;;;;;7.82;1.63;;;;;;;25.06;36.73;101497.38;5057809;28;20425;-75
2022/07/28 09:42:43;;;;;;;5.07;0.82;;;;;;;25.27;36.67;101503.09;5061582;28;20112;-74
2022/07/28 09:45:09;;;;;;;8.98;1.92;;;;;;;25.04;36.33;101494.16;5046436;28;20036;-73
2022/07/28 09:47:34;;;;;;;3.63;1.00;;;;;;;25.14;36.71;101485.59;5060342;28;20024;-76
2022/07/28 09:50:00;;;;;;;3.40;1.20;;;;;;;24.91;36.67;101486.47;5060785;28;20024;-74
2022/07/28 09:52:31;;;;;;;7.07;0.95;;;;;;;24.92;36.79;101490.75;5043311;28;20502;-74
2022/07/28 09:55:02;;;;;;;3.40;1.10;;;;;;;25.06;36.28;101478.81;5044998;28;20103;-73
2022/07/28 09:57:29;;;;;;;6.38;0.90;;;;;;;24.42;36.50;101481.47;5052448;28;20037;-74
2022/07/28 09:59:55;;;;;;;7.25;1.83;;;;;;;24.30;36.73;101480.69;5057671;28;20056;-74
2022/07/28 10:02:26;;;;;;;6.50;0.90;;;;;;;24.39;37.57;101478.47;5031009;28;20438;-74
2022/07/28 10:04:52;;;;;;;3.42;0.77;;;;;;;25.19;37.75;101476.94;5043199;28;20512;-74
2022/07/28 10:07:18;;;;;;;5.47;1.60;;;;;;;25.29;35.96;101479.00;5045945;28;20032;-74
2022/07/28 10:09:54;;;;;;;6.32;0.95;;;;;;;25.18;35.76;101476.09;5038612;28;20037;-75
2022/07/28 10:12:25;;;;;;;10.65;1.27;;;;;;;25.38;35.61;101473.06;5055578;28;20036;-74
2022/07/28 10:14:53;;;;;;;2.95;1.17;;;;;;;25.65;34.74;101464.47;5043408;28;20047;-74
2022/07/28 10:17:27;;;;;;;3.13;1.05;;;;;;;25.57;34.91;101463.00;5027407;28;20035;-75
2022/07/28 10:19:56;;;;;;;9.10;1.55;;;;;;;25.50;35.34;101454.41;5041727;28;20159;-76
2022/07/28 10:22:25;;;;;;;6.50;1.15;;;;;;;25.55;35.12;101451.03;5059419;28;20037;-73
2022/07/28 10:24:52;;;;;;;2.55;0.70;;;;;;;26.04;34.97;101448.63;5061966;28;20041;-75
2022/07/28 10:27:26;;;;;;;2.85;1.25;;;;;;;25.98;34.44;101457.59;5044299;28;20085;-74
2022/07/28 10:30:03;;;;;;;5.03;0.88;;;;;;;25.62;35.00;101452.50;5043014;28;20516;-74
2022/07/28 10:32:36;;;;;;;7.50;1.35;;;;;;;25.63;34.86;101447.97;5038690;28;20044;-73
2022/07/28 10:35:05;;;;;;;5.68;1.25;;;;;;;25.23;35.40;101448.91;5042507;28;20716;-73
2022/07/28 10:37:36;;;;;;;8.77;1.10;;;;;;;25.55;35.87;101441.22;5041383;28;20036;-74
2022/07/28 10:40:10;;;;;;;8.95;2.05;;;;;;;25.58;34.51;101439.91;5060407;28;20024;-74
2022/07/28 10:42:36;;;;;;;8.70;1.10;;;;;;;25.69;35.01;101447.00;5064507;28;20119;-75
2022/07/28 10:45:03;;;;;;;3.80;0.70;;;;;;;25.48;34.60;101435.25;5065106;28;20122;-75
2022/07/28 10:47:29;;;;;;;6.22;0.88;;;;;;;25.49;34.47;101441.38;5033288;28;20876;-75
2022/07/28 10:49:54;;;;;;;7.13;0.95;;;;;;;25.45;34.63;101425.94;5060434;28;20036;-74
2022/07/28 10:52:21;;;;;;;7.15;1.38;;;;;;;25.52;35.95;101430.28;5066846;28;20039;-73
2022/07/28 10:54:55;;;;;;;7.88;0.95;;;;;;;25.67;35.16;101429.72;5064929;28;20064;-75
2022/07/28 10:57:22;;;;;;;9.98;0.90;;;;;;;25.91;34.08;101430.34;5063533;28;20044;-73
2022/07/28 11:00:09;;;;;;;5.78;1.23;;;;;;;25.88;34.91;101436.13;5032105;28;20073;-73
2022/07/28 11:02:57;;;;;;;8.38;1.13;;;;;;;25.94;34.31;101427.25;5045628;28;20041;-75
2022/07/28 11:05:33;;;;;;;2.88;0.90;;;;;;;25.76;34.51;101429.06;5030668;28;20085;-76
2022/07/28 11:08:03;;;;;;;4.70;0.80;;;;;;;26.16;33.13;101429.94;5063004;28;20287;-75
2022/07/28 11:10:42;;;;;;;6.50;1.00;;;;;;;25.89;33.49;101427.13;5061203;28;20029;-73
2022/07/28 11:13:22;;;;;;;1.85;0.90;;;;;;;26.15;33.26;101423.03;5045168;28;20037;-75
2022/07/28 11:15:47;;;;;;;4.68;0.88;;;;;;;26.06;33.37;101421.81;5062624;28;20032;-73
2022/07/28 11:18:13;;;;;;;10.30;1.15;;;;;;;25.98;34.10;101429.16;5048037;28;20040;-74
2022/07/28 11:20:55;;;;;;;13.50;1.65;;;;;;;26.15;33.44;101426.47;5071287;28;20443;-75
2022/07/28 11:23:45;;;;;;;7.68;1.25;;;;;;;25.89;34.02;101438.56;5046233;28;20041;-76
2022/07/28 11:26:23;;;;;;;4.50;0.90;;;;;;;26.10;33.80;101420.28;5051330;28;20039;-74
2022/07/28 11:29:07;;;;;;;3.63;0.70;;;;;;;25.72;33.40;101416.53;5062153;28;20041;-75
2022/07/28 11:31:44;;;;;;;4.38;0.90;;;;;;;25.87;33.59;101415.94;5065315;28;20031;-72